sensor_id;sensor_type;location;lat;lon;timestamp;P1;durP1;ratioP1;P2;durP2;ratioP2
29776;SDS011;16677;52.224;7.484;2022-09-25T00:01:08;12.57;;;5.27;;
29776;SDS011;16677;52.224;7.484;2022-09-25T00:03:36;12.60;;;5.70;;
29776;SDS011;16677;52.224;7.484;2022-09-25T00:06:13;15.80;;;6.00;;
29776;SDS011;16677;52.224;7.484;2022-09-25T00:08:42;13.40;;;5.30;;
29776;SDS011;16677;52.224;7.484;2022-09-25T00:11:13;14.53;;;5.07;;
29776;SDS011;16677;52.224;7.484;2022-09-25T00:13:42;13.07;;;5.80;;
29776;SDS011;16677;52.224;7.484;2022-09-25T00:16:14;14.47;;;6.17;;
29776;SDS011;16677;52.224;7.484;2022-09-25T00:18:46;12.77;;;5.90;;
29776;SDS011;16677;52.224;7.484;2022-09-25T00:21:32;11.57;;;5.47;;
29776;SDS011;16677;52.224;7.484;2022-09-25T00:24:01;12.93;;;5.30;;
29776;SDS011;16677;52.224;7.484;2022-09-25T00:26:31;18.57;;;5.87;;
29776;SDS011;16677;52.224;7.484;2022-09-25T00:29:00;9.50;;;4.87;;
29776;SDS011;16677;52.224;7.484;2022-09-25T00:31:28;11.33;;;5.10;;
29776;SDS011;16677;52.224;7.484;2022-09-25T00:33:56;10.23;;;5.17;;
29776;SDS011;16677;52.224;7.484;2022-09-25T00:36:26;11.07;;;5.13;;
29776;SDS011;16677;52.224;7.484;2022-09-25T00:38:54;11.43;;;4.20;;
29776;SDS011;16677;52.224;7.484;2022-09-25T00:41:22;13.53;;;4.87;;
29776;SDS011;16677;52.224;7.484;2022-09-25T00:43:52;17.10;;;4.83;;
29776;SDS011;16677;52.224;7.484;2022-09-25T00:46:26;18.00;;;5.57;;
29776;SDS011;16677;52.224;7.484;2022-09-25T00:49:01;11.83;;;5.23;;
29776;SDS011;16677;52.224;7.484;2022-09-25T00:54:20;12.43;;;5.00;;
29776;SDS011;16677;52.224;7.484;2022-09-25T00:56:51;10.07;;;4.33;;
29776;SDS011;16677;52.224;7.484;2022-09-25T00:59:20;10.17;;;4.80;;
29776;SDS011;16677;52.224;7.484;2022-09-25T01:01:50;13.53;;;5.00;;
29776;SDS011;16677;52.224;7.484;2022-09-25T01:04:17;13.70;;;4.10;;
29776;SDS011;16677;52.224;7.484;2022-09-25T01:06:47;11.33;;;4.53;;
29776;SDS011;16677;52.224;7.484;2022-09-25T01:09:16;11.87;;;4.70;;
29776;SDS011;16677;52.224;7.484;2022-09-25T01:11:43;14.97;;;4.87;;
29776;SDS011;16677;52.224;7.484;2022-09-25T01:14:11;13.73;;;4.80;;
29776;SDS011;16677;52.224;7.484;2022-09-25T01:16:48;11.10;;;5.20;;
29776;SDS011;16677;52.224;7.484;2022-09-25T01:31:26;13.33;;;4.33;;
29776;SDS011;16677;52.224;7.484;2022-09-25T01:34:02;13.03;;;5.07;;
29776;SDS011;16677;52.224;7.484;2022-09-25T01:36:40;12.63;;;5.37;;
29776;SDS011;16677;52.224;7.484;2022-09-25T01:39:20;10.03;;;4.50;;
29776;SDS011;16677;52.224;7.484;2022-09-25T01:42:03;14.17;;;5.00;;
29776;SDS011;16677;52.224;7.484;2022-09-25T01:44:36;12.53;;;4.70;;
29776;SDS011;16677;52.224;7.484;2022-09-25T02:14:53;12.87;;;5.80;;
29776;SDS011;16677;52.224;7.484;2022-09-25T02:17:27;14.90;;;5.95;;
29776;SDS011;16677;52.224;7.484;2022-09-25T02:20:18;14.25;;;5.75;;
29776;SDS011;16677;52.224;7.484;2022-09-25T02:23:04;12.87;;;4.97;;
29776;SDS011;16677;52.224;7.484;2022-09-25T02:25:41;8.17;;;4.30;;
29776;SDS011;16677;52.224;7.484;2022-09-25T02:28:13;12.70;;;5.77;;
29776;SDS011;16677;52.224;7.484;2022-09-25T02:30:40;12.93;;;5.17;;
29776;SDS011;16677;52.224;7.484;2022-09-25T02:33:09;13.17;;;4.97;;
29776;SDS011;16677;52.224;7.484;2022-09-25T02:35:36;11.53;;;5.27;;
29776;SDS011;16677;52.224;7.484;2022-09-25T02:38:03;10.13;;;5.07;;
29776;SDS011;16677;52.224;7.484;2022-09-25T02:48:50;12.37;;;5.97;;
29776;SDS011;16677;52.224;7.484;2022-09-25T02:51:26;11.63;;;5.70;;
29776;SDS011;16677;52.224;7.484;2022-09-25T02:56:44;11.33;;;5.00;;
29776;SDS011;16677;52.224;7.484;2022-09-25T02:59:19;12.47;;;5.70;;
29776;SDS011;16677;52.224;7.484;2022-09-25T03:01:50;18.00;;;6.40;;
29776;SDS011;16677;52.224;7.484;2022-09-25T03:04:18;10.23;;;6.00;;
29776;SDS011;16677;52.224;7.484;2022-09-25T03:06:47;9.47;;;5.73;;
29776;SDS011;16677;52.224;7.484;2022-09-25T03:09:14;12.50;;;5.63;;
29776;SDS011;16677;52.224;7.484;2022-09-25T03:11:46;14.60;;;5.90;;
29776;SDS011;16677;52.224;7.484;2022-09-25T03:14:13;13.80;;;6.50;;
29776;SDS011;16677;52.224;7.484;2022-09-25T03:16:52;16.07;;;6.10;;
29776;SDS011;16677;52.224;7.484;2022-09-25T03:19:27;15.37;;;5.87;;
29776;SDS011;16677;52.224;7.484;2022-09-25T03:21:54;12.43;;;6.40;;
29776;SDS011;16677;52.224;7.484;2022-09-25T03:24:21;15.17;;;5.90;;
29776;SDS011;16677;52.224;7.484;2022-09-25T03:26:48;9.97;;;5.40;;
29776;SDS011;16677;52.224;7.484;2022-09-25T03:29:16;8.83;;;5.00;;
29776;SDS011;16677;52.224;7.484;2022-09-25T03:31:43;16.97;;;5.67;;
29776;SDS011;16677;52.224;7.484;2022-09-25T03:34:11;17.10;;;5.77;;
29776;SDS011;16677;52.224;7.484;2022-09-25T03:36:39;13.70;;;5.90;;
29776;SDS011;16677;52.224;7.484;2022-09-25T03:39:07;13.83;;;5.37;;
29776;SDS011;16677;52.224;7.484;2022-09-25T03:41:40;14.30;;;5.20;;
29776;SDS011;16677;52.224;7.484;2022-09-25T03:44:09;17.70;;;6.03;;
29776;SDS011;16677;52.224;7.484;2022-09-25T03:46:36;11.53;;;5.67;;
29776;SDS011;16677;52.224;7.484;2022-09-25T03:49:04;8.43;;;6.03;;
29776;SDS011;16677;52.224;7.484;2022-09-25T03:51:31;15.83;;;5.90;;
29776;SDS011;16677;52.224;7.484;2022-09-25T03:53:59;17.03;;;6.03;;
29776;SDS011;16677;52.224;7.484;2022-09-25T03:56:26;12.53;;;5.90;;
29776;SDS011;16677;52.224;7.484;2022-09-25T03:58:55;9.60;;;5.90;;
29776;SDS011;16677;52.224;7.484;2022-09-25T04:01:23;11.30;;;6.03;;
29776;SDS011;16677;52.224;7.484;2022-09-25T04:03:52;13.07;;;6.40;;
29776;SDS011;16677;52.224;7.484;2022-09-25T04:06:21;9.83;;;5.80;;
29776;SDS011;16677;52.224;7.484;2022-09-25T04:08:50;13.73;;;6.23;;
29776;SDS011;16677;52.224;7.484;2022-09-25T04:11:19;15.67;;;6.77;;
29776;SDS011;16677;52.224;7.484;2022-09-25T04:13:47;16.83;;;6.30;;
29776;SDS011;16677;52.224;7.484;2022-09-25T04:16:14;11.53;;;6.00;;
29776;SDS011;16677;52.224;7.484;2022-09-25T04:18:43;11.93;;;6.27;;
29776;SDS011;16677;52.224;7.484;2022-09-25T04:21:10;11.60;;;5.73;;
29776;SDS011;16677;52.224;7.484;2022-09-25T04:23:39;13.50;;;6.50;;
29776;SDS011;16677;52.224;7.484;2022-09-25T04:26:07;13.60;;;6.30;;
29776;SDS011;16677;52.224;7.484;2022-09-25T04:28:35;14.77;;;6.60;;
29776;SDS011;16677;52.224;7.484;2022-09-25T04:31:02;16.90;;;6.63;;
29776;SDS011;16677;52.224;7.484;2022-09-25T04:33:30;19.10;;;7.27;;
29776;SDS011;16677;52.224;7.484;2022-09-25T04:36:15;11.87;;;6.50;;
29776;SDS011;16677;52.224;7.484;2022-09-25T04:38:44;15.63;;;6.83;;
29776;SDS011;16677;52.224;7.484;2022-09-25T04:41:14;16.93;;;7.33;;
29776;SDS011;16677;52.224;7.484;2022-09-25T04:43:42;16.10;;;7.23;;
29776;SDS011;16677;52.224;7.484;2022-09-25T04:46:10;14.40;;;6.63;;
29776;SDS011;16677;52.224;7.484;2022-09-25T04:48:47;13.30;;;6.70;;
29776;SDS011;16677;52.224;7.484;2022-09-25T04:51:14;17.63;;;6.90;;
29776;SDS011;16677;52.224;7.484;2022-09-25T04:53:41;12.63;;;7.33;;
29776;SDS011;16677;52.224;7.484;2022-09-25T04:56:08;18.97;;;7.40;;
29776;SDS011;16677;52.224;7.484;2022-09-25T04:58:45;13.53;;;7.73;;
29776;SDS011;16677;52.224;7.484;2022-09-25T05:01:13;13.57;;;7.17;;
29776;SDS011;16677;52.224;7.484;2022-09-25T05:03:48;18.57;;;7.37;;
29776;SDS011;16677;52.224;7.484;2022-09-25T05:06:19;20.07;;;7.43;;
29776;SDS011;16677;52.224;7.484;2022-09-25T05:08:47;19.37;;;7.50;;
29776;SDS011;16677;52.224;7.484;2022-09-25T05:11:15;16.30;;;7.63;;
29776;SDS011;16677;52.224;7.484;2022-09-25T05:13:43;10.80;;;7.10;;
29776;SDS011;16677;52.224;7.484;2022-09-25T05:16:12;11.73;;;8.77;;
29776;SDS011;16677;52.224;7.484;2022-09-25T05:18:39;17.47;;;8.10;;
29776;SDS011;16677;52.224;7.484;2022-09-25T05:21:09;12.27;;;7.60;;
29776;SDS011;16677;52.224;7.484;2022-09-25T05:23:39;12.77;;;6.80;;
29776;SDS011;16677;52.224;7.484;2022-09-25T05:26:06;13.57;;;7.10;;
29776;SDS011;16677;52.224;7.484;2022-09-25T05:28:35;16.77;;;7.20;;
29776;SDS011;16677;52.224;7.484;2022-09-25T05:31:02;12.97;;;6.87;;
29776;SDS011;16677;52.224;7.484;2022-09-25T05:33:31;15.90;;;7.23;;
29776;SDS011;16677;52.224;7.484;2022-09-25T05:36:00;16.60;;;7.07;;
29776;SDS011;16677;52.224;7.484;2022-09-25T05:38:32;14.87;;;7.83;;
29776;SDS011;16677;52.224;7.484;2022-09-25T05:41:04;11.63;;;7.53;;
29776;SDS011;16677;52.224;7.484;2022-09-25T05:43:33;13.10;;;7.17;;
29776;SDS011;16677;52.224;7.484;2022-09-25T05:46:05;13.47;;;7.67;;
29776;SDS011;16677;52.224;7.484;2022-09-25T05:48:32;18.00;;;8.00;;
29776;SDS011;16677;52.224;7.484;2022-09-25T05:50:59;13.97;;;7.30;;
29776;SDS011;16677;52.224;7.484;2022-09-25T05:53:26;12.17;;;7.40;;
29776;SDS011;16677;52.224;7.484;2022-09-25T05:55:58;14.17;;;7.67;;
29776;SDS011;16677;52.224;7.484;2022-09-25T05:58:27;11.27;;;6.50;;
29776;SDS011;16677;52.224;7.484;2022-09-25T06:00:58;13.17;;;6.27;;
29776;SDS011;16677;52.224;7.484;2022-09-25T06:03:27;13.17;;;6.17;;
29776;SDS011;16677;52.224;7.484;2022-09-25T06:05:56;7.40;;;5.43;;
29776;SDS011;16677;52.224;7.484;2022-09-25T06:08:27;11.10;;;5.10;;
29776;SDS011;16677;52.224;7.484;2022-09-25T06:10:56;9.77;;;5.43;;
29776;SDS011;16677;52.224;7.484;2022-09-25T06:13:26;11.83;;;5.17;;
29776;SDS011;16677;52.224;7.484;2022-09-25T06:15:54;8.93;;;5.33;;
29776;SDS011;16677;52.224;7.484;2022-09-25T06:18:23;9.43;;;4.70;;
29776;SDS011;16677;52.224;7.484;2022-09-25T06:20:57;10.90;;;4.77;;
29776;SDS011;16677;52.224;7.484;2022-09-25T06:23:29;10.67;;;5.13;;
29776;SDS011;16677;52.224;7.484;2022-09-25T06:26:03;8.60;;;5.17;;
29776;SDS011;16677;52.224;7.484;2022-09-25T06:28:34;12.43;;;5.40;;
29776;SDS011;16677;52.224;7.484;2022-09-25T06:31:02;11.73;;;5.30;;
29776;SDS011;16677;52.224;7.484;2022-09-25T06:33:31;9.30;;;5.57;;
29776;SDS011;16677;52.224;7.484;2022-09-25T06:36:04;11.13;;;6.67;;
29776;SDS011;16677;52.224;7.484;2022-09-25T06:38:33;11.10;;;5.40;;
29776;SDS011;16677;52.224;7.484;2022-09-25T06:41:01;8.80;;;5.03;;
29776;SDS011;16677;52.224;7.484;2022-09-25T06:43:30;10.07;;;4.63;;
29776;SDS011;16677;52.224;7.484;2022-09-25T06:45:58;13.23;;;4.10;;
29776;SDS011;16677;52.224;7.484;2022-09-25T06:48:34;9.63;;;4.17;;
29776;SDS011;16677;52.224;7.484;2022-09-25T06:51:09;9.70;;;4.00;;
29776;SDS011;16677;52.224;7.484;2022-09-25T06:53:47;9.98;;;4.80;;
29776;SDS011;16677;52.224;7.484;2022-09-25T06:56:20;10.50;;;4.00;;
29776;SDS011;16677;52.224;7.484;2022-09-25T06:58:47;9.17;;;4.23;;
29776;SDS011;16677;52.224;7.484;2022-09-25T07:01:14;7.63;;;4.10;;
29776;SDS011;16677;52.224;7.484;2022-09-25T07:03:43;6.80;;;3.80;;
29776;SDS011;16677;52.224;7.484;2022-09-25T07:06:13;9.93;;;3.90;;
29776;SDS011;16677;52.224;7.484;2022-09-25T07:08:42;8.68;;;3.90;;
29776;SDS011;16677;52.224;7.484;2022-09-25T07:11:14;7.00;;;3.85;;
29776;SDS011;16677;52.224;7.484;2022-09-25T07:13:57;8.00;;;4.10;;
29776;SDS011;16677;52.224;7.484;2022-09-25T07:16:26;8.57;;;3.72;;
29776;SDS011;16677;52.224;7.484;2022-09-25T07:18:55;7.50;;;4.18;;
29776;SDS011;16677;52.224;7.484;2022-09-25T08:36:28;24.70;;;16.73;;
29776;SDS011;16677;52.224;7.484;2022-09-25T08:38:55;14.93;;;4.27;;
29776;SDS011;16677;52.224;7.484;2022-09-25T08:41:26;7.75;;;2.63;;
29776;SDS011;16677;52.224;7.484;2022-09-25T08:44:02;5.33;;;2.30;;
29776;SDS011;16677;52.224;7.484;2022-09-25T08:50:05;6.40;;;2.80;;
29776;SDS011;16677;52.224;7.484;2022-09-25T08:52:59;5.83;;;2.80;;
29776;SDS011;16677;52.224;7.484;2022-09-25T08:55:38;4.97;;;2.37;;
29776;SDS011;16677;52.224;7.484;2022-09-25T08:58:29;7.30;;;2.43;;
29776;SDS011;16677;52.224;7.484;2022-09-25T09:00:59;7.50;;;2.40;;
29776;SDS011;16677;52.224;7.484;2022-09-25T09:03:31;5.87;;;2.10;;
29776;SDS011;16677;52.224;7.484;2022-09-25T09:06:03;5.07;;;1.70;;
29776;SDS011;16677;52.224;7.484;2022-09-25T09:08:33;7.67;;;1.90;;
29776;SDS011;16677;52.224;7.484;2022-09-25T09:13:44;11.38;;;2.85;;
29776;SDS011;16677;52.224;7.484;2022-09-25T09:18:56;6.83;;;2.10;;
29776;SDS011;16677;52.224;7.484;2022-09-25T09:21:34;9.90;;;2.00;;
29776;SDS011;16677;52.224;7.484;2022-09-25T09:32:51;7.63;;;1.70;;
29776;SDS011;16677;52.224;7.484;2022-09-25T09:35:45;4.50;;;1.90;;
29776;SDS011;16677;52.224;7.484;2022-09-25T09:41:10;3.70;;;1.50;;
29776;SDS011;16677;52.224;7.484;2022-09-25T09:44:03;26.48;;;22.75;;
29776;SDS011;16677;52.224;7.484;2022-09-25T09:46:53;10.03;;;3.60;;
29776;SDS011;16677;52.224;7.484;2022-09-25T09:49:41;6.77;;;1.70;;
29776;SDS011;16677;52.224;7.484;2022-09-25T09:52:34;4.03;;;1.60;;
29776;SDS011;16677;52.224;7.484;2022-09-25T09:57:59;5.60;;;1.73;;
29776;SDS011;16677;52.224;7.484;2022-09-25T10:00:32;5.53;;;1.40;;
29776;SDS011;16677;52.224;7.484;2022-09-25T10:03:10;3.97;;;1.60;;
29776;SDS011;16677;52.224;7.484;2022-09-25T10:06:00;5.10;;;1.40;;
29776;SDS011;16677;52.224;7.484;2022-09-25T10:08:31;7.53;;;1.80;;
29776;SDS011;16677;52.224;7.484;2022-09-25T10:10:58;5.10;;;1.57;;
29776;SDS011;16677;52.224;7.484;2022-09-25T10:13:26;4.57;;;1.30;;
29776;SDS011;16677;52.224;7.484;2022-09-25T10:16:05;9.13;;;2.10;;
29776;SDS011;16677;52.224;7.484;2022-09-25T10:21:20;4.30;;;2.47;;
29776;SDS011;16677;52.224;7.484;2022-09-25T10:23:51;2.70;;;1.27;;
29776;SDS011;16677;52.224;7.484;2022-09-25T10:28:49;4.43;;;1.70;;
29776;SDS011;16677;52.224;7.484;2022-09-25T10:31:17;2.50;;;1.10;;
29776;SDS011;16677;52.224;7.484;2022-09-25T10:36:41;4.47;;;1.63;;
29776;SDS011;16677;52.224;7.484;2022-09-25T10:39:26;4.93;;;1.33;;
29776;SDS011;16677;52.224;7.484;2022-09-25T10:42:47;4.50;;;1.27;;
29776;SDS011;16677;52.224;7.484;2022-09-25T10:47:55;4.67;;;1.10;;
29776;SDS011;16677;52.224;7.484;2022-09-25T10:50:41;4.57;;;1.40;;
29776;SDS011;16677;52.224;7.484;2022-09-25T10:53:42;6.30;;;1.20;;
29776;SDS011;16677;52.224;7.484;2022-09-25T10:56:05;3.80;;;1.40;;
29776;SDS011;16677;52.224;7.484;2022-09-25T10:58:41;2.67;;;1.10;;
29776;SDS011;16677;52.224;7.484;2022-09-25T11:01:16;5.90;;;1.40;;
29776;SDS011;16677;52.224;7.484;2022-09-25T11:04:05;3.97;;;1.50;;
29776;SDS011;16677;52.224;7.484;2022-09-25T11:06:47;4.07;;;1.20;;
29776;SDS011;16677;52.224;7.484;2022-09-25T11:09:19;3.67;;;1.30;;
29776;SDS011;16677;52.224;7.484;2022-09-25T11:11:48;3.50;;;1.10;;
29776;SDS011;16677;52.224;7.484;2022-09-25T11:14:30;5.20;;;1.20;;
29776;SDS011;16677;52.224;7.484;2022-09-25T11:17:00;3.63;;;1.40;;
29776;SDS011;16677;52.224;7.484;2022-09-25T11:19:35;3.60;;;1.53;;
29776;SDS011;16677;52.224;7.484;2022-09-25T11:24:50;6.20;;;1.20;;
29776;SDS011;16677;52.224;7.484;2022-09-25T11:27:37;6.53;;;5.23;;
29776;SDS011;16677;52.224;7.484;2022-09-25T11:30:13;4.23;;;1.60;;
29776;SDS011;16677;52.224;7.484;2022-09-25T11:33:04;2.50;;;1.33;;
29776;SDS011;16677;52.224;7.484;2022-09-25T11:47:22;5.37;;;2.63;;
29776;SDS011;16677;52.224;7.484;2022-09-25T11:49:55;2.20;;;1.30;;
29776;SDS011;16677;52.224;7.484;2022-09-25T12:00:31;3.77;;;1.43;;
29776;SDS011;16677;52.224;7.484;2022-09-25T12:14:19;4.93;;;1.30;;
29776;SDS011;16677;52.224;7.484;2022-09-25T12:19:50;1.57;;;1.17;;
29776;SDS011;16677;52.224;7.484;2022-09-25T12:28:04;3.13;;;1.10;;
29776;SDS011;16677;52.224;7.484;2022-09-25T12:33:34;2.20;;;1.27;;
29776;SDS011;16677;52.224;7.484;2022-09-25T12:36:28;3.87;;;1.30;;
29776;SDS011;16677;52.224;7.484;2022-09-25T12:39:48;5.23;;;1.43;;
29776;SDS011;16677;52.224;7.484;2022-09-25T12:41:57;5.30;;;1.53;;
29776;SDS011;16677;52.224;7.484;2022-09-25T12:44:55;3.13;;;1.37;;
29776;SDS011;16677;52.224;7.484;2022-09-25T12:47:35;2.90;;;1.20;;
29776;SDS011;16677;52.224;7.484;2022-09-25T12:50:15;13.50;;;10.33;;
29776;SDS011;16677;52.224;7.484;2022-09-25T12:52:52;4.13;;;1.30;;
29776;SDS011;16677;52.224;7.484;2022-09-25T12:56:08;4.70;;;1.23;;
29776;SDS011;16677;52.224;7.484;2022-09-25T12:58:41;5.60;;;4.30;;
29776;SDS011;16677;52.224;7.484;2022-09-25T13:04:01;3.17;;;1.20;;
29776;SDS011;16677;52.224;7.484;2022-09-25T13:06:52;3.93;;;1.17;;
29776;SDS011;16677;52.224;7.484;2022-09-25T13:09:39;4.40;;;1.20;;
29776;SDS011;16677;52.224;7.484;2022-09-25T13:17:57;3.80;;;1.00;;
29776;SDS011;16677;52.224;7.484;2022-09-25T13:22:58;2.13;;;1.20;;
29776;SDS011;16677;52.224;7.484;2022-09-25T13:28:19;2.60;;;1.33;;
29776;SDS011;16677;52.224;7.484;2022-09-25T13:33:39;4.03;;;1.47;;
29776;SDS011;16677;52.224;7.484;2022-09-25T13:44:56;7.23;;;2.00;;
29776;SDS011;16677;52.224;7.484;2022-09-25T13:55:16;3.87;;;1.40;;
29776;SDS011;16677;52.224;7.484;2022-09-25T14:00:27;4.07;;;1.27;;
29776;SDS011;16677;52.224;7.484;2022-09-25T14:08:49;3.87;;;1.80;;
29776;SDS011;16677;52.224;7.484;2022-09-25T14:11:22;3.00;;;1.10;;
29776;SDS011;16677;52.224;7.484;2022-09-25T14:14:09;3.07;;;1.30;;
29776;SDS011;16677;52.224;7.484;2022-09-25T14:16:47;1.83;;;1.10;;
29776;SDS011;16677;52.224;7.484;2022-09-25T14:19:20;6.87;;;1.60;;
29776;SDS011;16677;52.224;7.484;2022-09-25T14:21:54;2.73;;;1.30;;
29776;SDS011;16677;52.224;7.484;2022-09-25T14:24:26;2.93;;;1.20;;
29776;SDS011;16677;52.224;7.484;2022-09-25T14:26:55;2.97;;;1.20;;
29776;SDS011;16677;52.224;7.484;2022-09-25T14:29:24;2.60;;;1.30;;
29776;SDS011;16677;52.224;7.484;2022-09-25T14:38:05;4.87;;;1.50;;
29776;SDS011;16677;52.224;7.484;2022-09-25T14:40:57;3.23;;;1.17;;
29776;SDS011;16677;52.224;7.484;2022-09-25T14:43:50;3.00;;;1.30;;
29776;SDS011;16677;52.224;7.484;2022-09-25T14:46:51;6.40;;;1.80;;
29776;SDS011;16677;52.224;7.484;2022-09-25T14:49:24;4.80;;;1.40;;
29776;SDS011;16677;52.224;7.484;2022-09-25T14:52:00;3.30;;;1.40;;
29776;SDS011;16677;52.224;7.484;2022-09-25T14:54:31;2.33;;;1.33;;
29776;SDS011;16677;52.224;7.484;2022-09-25T14:57:04;2.00;;;1.10;;
29776;SDS011;16677;52.224;7.484;2022-09-25T14:59:38;5.73;;;1.40;;
29776;SDS011;16677;52.224;7.484;2022-09-25T15:02:30;6.23;;;1.70;;
29776;SDS011;16677;52.224;7.484;2022-09-25T15:07:49;3.50;;;1.43;;
29776;SDS011;16677;52.224;7.484;2022-09-25T15:10:35;3.23;;;1.27;;
29776;SDS011;16677;52.224;7.484;2022-09-25T15:13:13;3.87;;;1.20;;
29776;SDS011;16677;52.224;7.484;2022-09-25T15:15:43;2.10;;;1.20;;
29776;SDS011;16677;52.224;7.484;2022-09-25T15:18:40;3.50;;;1.30;;
29776;SDS011;16677;52.224;7.484;2022-09-25T15:21:13;4.00;;;1.20;;
29776;SDS011;16677;52.224;7.484;2022-09-25T15:23:44;6.67;;;1.70;;
29776;SDS011;16677;52.224;7.484;2022-09-25T15:26:15;3.07;;;2.00;;
29776;SDS011;16677;52.224;7.484;2022-09-25T15:28:43;4.17;;;1.57;;
29776;SDS011;16677;52.224;7.484;2022-09-25T15:31:11;6.50;;;1.83;;
29776;SDS011;16677;52.224;7.484;2022-09-25T15:33:39;2.23;;;1.10;;
29776;SDS011;16677;52.224;7.484;2022-09-25T15:36:16;4.20;;;1.57;;
29776;SDS011;16677;52.224;7.484;2022-09-25T15:38:51;4.37;;;1.57;;
29776;SDS011;16677;52.224;7.484;2022-09-25T15:41:20;2.53;;;1.50;;
29776;SDS011;16677;52.224;7.484;2022-09-25T15:43:49;1.90;;;1.30;;
29776;SDS011;16677;52.224;7.484;2022-09-25T15:49:12;5.33;;;1.53;;
29776;SDS011;16677;52.224;7.484;2022-09-25T15:51:47;2.77;;;1.37;;
29776;SDS011;16677;52.224;7.484;2022-09-25T15:57:03;3.80;;;2.10;;
29776;SDS011;16677;52.224;7.484;2022-09-25T15:59:46;5.03;;;3.53;;
29776;SDS011;16677;52.224;7.484;2022-09-25T16:02:33;3.83;;;2.13;;
29776;SDS011;16677;52.224;7.484;2022-09-25T16:05:28;3.37;;;1.87;;
29776;SDS011;16677;52.224;7.484;2022-09-25T16:11:03;1.77;;;1.17;;
29776;SDS011;16677;52.224;7.484;2022-09-25T16:13:43;4.33;;;1.53;;
29776;SDS011;16677;52.224;7.484;2022-09-25T16:16:22;4.40;;;2.20;;
29776;SDS011;16677;52.224;7.484;2022-09-25T16:18:49;4.83;;;2.03;;
29776;SDS011;16677;52.224;7.484;2022-09-25T16:21:21;2.90;;;2.00;;
29776;SDS011;16677;52.224;7.484;2022-09-25T16:23:53;3.50;;;2.00;;
29776;SDS011;16677;52.224;7.484;2022-09-25T16:26:23;2.27;;;1.43;;
29776;SDS011;16677;52.224;7.484;2022-09-25T16:28:55;2.87;;;1.77;;
29776;SDS011;16677;52.224;7.484;2022-09-25T16:31:27;3.87;;;1.70;;
29776;SDS011;16677;52.224;7.484;2022-09-25T16:33:55;3.23;;;1.80;;
29776;SDS011;16677;52.224;7.484;2022-09-25T16:36:23;4.47;;;1.50;;
29776;SDS011;16677;52.224;7.484;2022-09-25T16:41:28;2.13;;;1.50;;
29776;SDS011;16677;52.224;7.484;2022-09-25T16:44:13;2.80;;;1.60;;
29776;SDS011;16677;52.224;7.484;2022-09-25T16:49:21;2.57;;;1.23;;
29776;SDS011;16677;52.224;7.484;2022-09-25T16:51:50;3.50;;;1.67;;
29776;SDS011;16677;52.224;7.484;2022-09-25T16:54:20;1.90;;;1.70;;
29776;SDS011;16677;52.224;7.484;2022-09-25T16:56:47;2.50;;;1.43;;
29776;SDS011;16677;52.224;7.484;2022-09-25T16:59:18;5.07;;;1.53;;
29776;SDS011;16677;52.224;7.484;2022-09-25T17:01:51;2.77;;;1.30;;
29776;SDS011;16677;52.224;7.484;2022-09-25T17:04:24;4.00;;;1.30;;
29776;SDS011;16677;52.224;7.484;2022-09-25T17:06:53;1.97;;;1.40;;
29776;SDS011;16677;52.224;7.484;2022-09-25T17:09:24;4.87;;;1.60;;
29776;SDS011;16677;52.224;7.484;2022-09-25T17:12:02;3.93;;;1.33;;
29776;SDS011;16677;52.224;7.484;2022-09-25T17:14:32;3.37;;;1.50;;
29776;SDS011;16677;52.224;7.484;2022-09-25T17:17:00;3.37;;;1.73;;
29776;SDS011;16677;52.224;7.484;2022-09-25T17:19:27;3.80;;;1.80;;
29776;SDS011;16677;52.224;7.484;2022-09-25T17:21:54;2.20;;;1.43;;
29776;SDS011;16677;52.224;7.484;2022-09-25T17:24:24;2.60;;;1.50;;
29776;SDS011;16677;52.224;7.484;2022-09-25T17:26:52;2.30;;;1.60;;
29776;SDS011;16677;52.224;7.484;2022-09-25T17:29:20;2.53;;;1.40;;
29776;SDS011;16677;52.224;7.484;2022-09-25T17:31:47;3.33;;;1.50;;
29776;SDS011;16677;52.224;7.484;2022-09-25T17:34:15;3.00;;;1.40;;
29776;SDS011;16677;52.224;7.484;2022-09-25T17:36:44;2.77;;;1.13;;
29776;SDS011;16677;52.224;7.484;2022-09-25T17:39:11;3.07;;;1.50;;
29776;SDS011;16677;52.224;7.484;2022-09-25T17:41:38;1.93;;;1.83;;
29776;SDS011;16677;52.224;7.484;2022-09-25T17:44:06;4.27;;;2.13;;
29776;SDS011;16677;52.224;7.484;2022-09-25T17:46:37;6.97;;;2.10;;
29776;SDS011;16677;52.224;7.484;2022-09-25T17:49:04;3.53;;;2.20;;
29776;SDS011;16677;52.224;7.484;2022-09-25T17:51:31;3.23;;;2.00;;
29776;SDS011;16677;52.224;7.484;2022-09-25T17:53:58;4.37;;;3.20;;
29776;SDS011;16677;52.224;7.484;2022-09-25T17:56:27;6.03;;;2.07;;
29776;SDS011;16677;52.224;7.484;2022-09-25T17:58:59;2.50;;;2.00;;
29776;SDS011;16677;52.224;7.484;2022-09-25T18:01:29;4.87;;;2.40;;
29776;SDS011;16677;52.224;7.484;2022-09-25T18:04:06;5.43;;;2.60;;
29776;SDS011;16677;52.224;7.484;2022-09-25T18:06:46;2.87;;;2.57;;
29776;SDS011;16677;52.224;7.484;2022-09-25T18:09:13;4.80;;;3.17;;
29776;SDS011;16677;52.224;7.484;2022-09-25T18:11:40;3.33;;;2.57;;
29776;SDS011;16677;52.224;7.484;2022-09-25T18:14:12;6.67;;;3.30;;
29776;SDS011;16677;52.224;7.484;2022-09-25T18:16:41;4.90;;;2.97;;
29776;SDS011;16677;52.224;7.484;2022-09-25T18:19:12;5.47;;;3.70;;
29776;SDS011;16677;52.224;7.484;2022-09-25T18:22:02;11.00;;;7.13;;
29776;SDS011;16677;52.224;7.484;2022-09-25T18:24:47;6.20;;;4.50;;
29776;SDS011;16677;52.224;7.484;2022-09-25T18:27:19;5.60;;;3.50;;
29776;SDS011;16677;52.224;7.484;2022-09-25T18:29:46;6.07;;;3.13;;
29776;SDS011;16677;52.224;7.484;2022-09-25T18:32:14;4.33;;;2.77;;
29776;SDS011;16677;52.224;7.484;2022-09-25T18:34:41;3.80;;;2.37;;
29776;SDS011;16677;52.224;7.484;2022-09-25T18:37:08;7.13;;;2.47;;
29776;SDS011;16677;52.224;7.484;2022-09-25T18:39:35;4.20;;;2.63;;
29776;SDS011;16677;52.224;7.484;2022-09-25T18:42:03;6.70;;;1.73;;
29776;SDS011;16677;52.224;7.484;2022-09-25T18:44:30;2.73;;;1.77;;
29776;SDS011;16677;52.224;7.484;2022-09-25T18:47:06;3.60;;;1.93;;
29776;SDS011;16677;52.224;7.484;2022-09-25T18:49:33;2.47;;;1.83;;
29776;SDS011;16677;52.224;7.484;2022-09-25T18:52:02;3.90;;;1.87;;
29776;SDS011;16677;52.224;7.484;2022-09-25T18:54:29;2.33;;;1.73;;
29776;SDS011;16677;52.224;7.484;2022-09-25T18:56:56;2.67;;;2.07;;
29776;SDS011;16677;52.224;7.484;2022-09-25T18:59:24;3.27;;;2.40;;
29776;SDS011;16677;52.224;7.484;2022-09-25T19:01:54;4.50;;;3.17;;
29776;SDS011;16677;52.224;7.484;2022-09-25T19:04:21;10.23;;;8.43;;
29776;SDS011;16677;52.224;7.484;2022-09-25T19:06:48;8.90;;;7.80;;
29776;SDS011;16677;52.224;7.484;2022-09-25T19:09:15;10.17;;;8.00;;
29776;SDS011;16677;52.224;7.484;2022-09-25T19:11:43;9.83;;;6.57;;
29776;SDS011;16677;52.224;7.484;2022-09-25T19:14:10;5.83;;;5.23;;
29776;SDS011;16677;52.224;7.484;2022-09-25T19:16:40;6.23;;;5.13;;
29776;SDS011;16677;52.224;7.484;2022-09-25T19:19:07;7.43;;;5.67;;
29776;SDS011;16677;52.224;7.484;2022-09-25T19:21:34;7.53;;;4.57;;
29776;SDS011;16677;52.224;7.484;2022-09-25T19:24:01;4.87;;;2.77;;
29776;SDS011;16677;52.224;7.484;2022-09-25T19:26:28;6.03;;;3.00;;
29776;SDS011;16677;52.224;7.484;2022-09-25T19:28:56;5.70;;;3.07;;
29776;SDS011;16677;52.224;7.484;2022-09-25T19:31:24;5.27;;;3.20;;
29776;SDS011;16677;52.224;7.484;2022-09-25T19:33:52;9.30;;;7.67;;
29776;SDS011;16677;52.224;7.484;2022-09-25T19:36:24;12.17;;;6.83;;
29776;SDS011;16677;52.224;7.484;2022-09-25T19:38:55;4.53;;;3.57;;
29776;SDS011;16677;52.224;7.484;2022-09-25T19:41:30;7.17;;;3.40;;
29776;SDS011;16677;52.224;7.484;2022-09-25T19:44:00;5.13;;;3.67;;
29776;SDS011;16677;52.224;7.484;2022-09-25T19:46:37;5.13;;;3.03;;
29776;SDS011;16677;52.224;7.484;2022-09-25T19:49:06;4.37;;;2.97;;